Suomigracht — PHBT — position and weather

sailwx.info

Track history (hours):
 
Tides and Currents Weather Stations Pressure Air Temp Water Temp Dewpoint Dewpoint Depression Visibility Wind Speed Wind Dir Waves Ship Positions

Suomigracht

Last reported at 2019-Jun-11 09:39 UTC. Time now 2019-Jun-17 14:37 UTC.
Position N 55°18' W 008°16'.

Length 173 m; beam 26 m.

Type: Cargo ship. MMSI: 246100000.

Date/timePositionNaut miles runAvg speedWind from/ knotsBaromVisibWave heightAir tempDewpointWater temp
2019-Jun-11 09:39N 55°18' W 008°16'316.4
2019-Jun-11 09:28N 55°19' W 008°11'1016.5
2019-Jun-11 08:52N 55°22' W 007°54'1217.7
2019-Jun-11 08:10N 55°26' W 007°34'918.4
2019-Jun-11 07:40N 55°28' W 007°18'717.7
2019-Jun-11 07:17N 55°29' W 007°06'517.2
2019-Jun-11 07:00N 55°28' W 006°57'816.8
2019-Jun-11 06:30N 55°27' W 006°43'816.8
2019-Jun-11 06:00N 55°26' W 006°28'816.3
2019-Jun-11 05:30N 55°26' W 006°14'815.7
2019-Jun-11 05:00N 55°22' W 006°01'1015.2
2019-Jun-11 04:22N 55°15' W 005°50'1014.9
2019-Jun-11 03:41N 55°15' W 005°32'1816.3
2019-Jun-11 02:34N 55°24' W 005°04'1216.6
2019-Jun-11 01:53N 55°35' W 004°59'616.8
2019-Jun-11 01:30N 55°41' W 004°59'816.8
2019-Jun-11 01:00N 55°50' W 004°57'815.6
2019-Jun-11 00:31N 55°57' W 004°53'4 8.0
2019-Jun-11 00:00N 55°58' W 004°46'0 0.6
2019-Jun-10 23:28N 55°57' W 004°46'0 0.0
2019-Jun-10 22:56N 55°57' W 004°46'0 0.0
2019-Jun-10 22:29N 55°57' W 004°46'0 0.0
2019-Jun-10 21:50N 55°57' W 004°46'0 0.0
2019-Jun-10 21:26N 55°57' W 004°46'0 0.0
2019-Jun-10 20:56N 55°57' W 004°46'0 0.0
2019-Jun-10 20:20N 55°57' W 004°46'0 0.0
2019-Jun-10 19:59N 55°57' W 004°46'0 0.0
2019-Jun-10 19:29N 55°57' W 004°46'0 0.0
2019-Jun-10 17:53N 55°57' W 004°46'0 0.0
2019-Jun-10 17:29N 55°57' W 004°46'0 0.0
2019-Jun-10 16:59N 55°57' W 004°46'0 0.0
2019-Jun-10 16:29N 55°57' W 004°46'0 0.0
2019-Jun-10 15:59N 55°57' W 004°46'0 0.0
2019-Jun-10 15:29N 55°57' W 004°46'0 0.0
2019-Jun-10 14:59N 55°57' W 004°46'0 0.0
2019-Jun-10 14:29N 55°57' W 004°46'0 0.0
2019-Jun-10 13:59N 55°57' W 004°46'0 0.0
2019-Jun-10 13:29N 55°57' W 004°46'0 0.0
2019-Jun-10 12:59N 55°57' W 004°46'0 0.0
2019-Jun-10 12:23N 55°57' W 004°46'0 0.0
2019-Jun-10 11:59N 55°57' W 004°46'0 0.0
2019-Jun-10 10:44N 55°57' W 004°46'0 0.0
2019-Jun-10 10:29N 55°57' W 004°46'0 0.0
2019-Jun-10 09:56N 55°57' W 004°46'0 0.0
2019-Jun-10 09:23N 55°57' W 004°46'0 0.0
2019-Jun-10 08:59N 55°57' W 004°46'0 0.0
2019-Jun-10 08:29N 55°57' W 004°46'0 0.0
2019-Jun-10 07:59N 55°57' W 004°46'0 0.0
2019-Jun-10 07:31N 55°57' W 004°46'1 2.8
2019-Jun-10 06:59N 55°58' W 004°48'511.3
2019-Jun-10 06:31N 55°54' W 004°55'817.0
2019-Jun-10 06:01N 55°46' W 004°58'40 5.6
2019-Jun-09 22:53N 55°14' W 005°40'411.3
2019-Jun-09 22:30N 55°14' W 005°48'611.0
2019-Jun-09 22:00N 55°14' W 005°57'510.6
2019-Jun-09 21:30N 55°19' W 006°03'5 9.7
2019-Jun-09 21:00N 55°21' W 006°10'5 9.8
2019-Jun-09 20:30N 55°24' W 006°18'510.0
2019-Jun-09 20:00N 55°27' W 006°24'5 9.7
2019-Jun-09 19:31N 55°31' W 006°29'5 9.3
2019-Jun-09 19:00N 55°35' W 006°35'611.3
2019-Jun-09 18:31N 55°39' W 006°41'714.3
2019-Jun-09 18:01N 55°44' W 006°49'19914.2
2019-Jun-09 04:00N 58°43' W 004°06'816.1
2019-Jun-09 03:30N 58°43' W 003°51'815.6
2019-Jun-09 03:01N 58°43' W 003°36'815.2
2019-Jun-09 02:31N 58°43' W 003°22'713.8
2019-Jun-09 02:00N 58°43' W 003°08'713.5
2019-Jun-09 01:31N 58°43' W 002°55'713.5
2019-Jun-09 00:58N 58°41' W 002°42'21216.2
2019-Jun-08 11:53N 58°07' E 003°58'616.3
2019-Jun-08 11:30N 58°05' E 004°09'916.4
2019-Jun-08 10:59N 58°03' E 004°25'816.9
2019-Jun-08 10:30N 58°01' E 004°40'816.5
2019-Jun-08 10:00N 57°60' E 004°55'816.5
2019-Jun-08 09:30N 57°58' E 005°10'816.4
2019-Jun-08 09:00N 57°56' E 005°26'816.6
2019-Jun-08 08:30N 57°55' E 005°41'816.4
2019-Jun-08 08:00N 57°53' E 005°56'816.2
2019-Jun-08 07:30N 57°51' E 006°11'917.0
2019-Jun-08 07:00N 57°50' E 006°26'917.3
2019-Jun-08 06:30N 57°48' E 006°42'917.8
2019-Jun-08 06:00N 57°47' E 006°59'918.0
2019-Jun-08 05:30N 57°47' E 007°16'917.6
2019-Jun-08 05:00N 57°47' E 007°32'918.3
2019-Jun-08 04:31N 57°46' E 007°49'918.3
2019-Jun-08 04:00N 57°46' E 008°07'917.5
2019-Jun-08 03:30N 57°47' E 008°23'917.2
2019-Jun-08 03:01N 57°47' E 008°39'917.4
2019-Jun-08 02:31N 57°47' E 008°55'816.9
2019-Jun-08 02:01N 57°48' E 009°11'917.0
2019-Jun-08 01:31N 57°48' E 009°27'917.0
2019-Jun-08 01:00N 57°48' E 009°43'816.9
2019-Jun-08 00:31N 57°48' E 009°59'816.8
2019-Jun-08 00:00N 57°48' E 010°15'816.6
2019-Jun-07 23:31N 57°48' E 010°30'816.2
2019-Jun-07 23:01N 57°48' E 010°45'816.1
2019-Jun-07 22:31N 57°45' E 010°59'816.7
2019-Jun-07 22:01N 57°42' E 011°13'917.3
2019-Jun-07 21:31N 57°38' E 011°28'815.1
2019-Jun-07 21:01N 57°36' E 011°41'0 0.3
2019-Jun-07 20:28N 57°36' E 011°41'0 0.0
2019-Jun-07 19:58N 57°36' E 011°41'0 0.0
2019-Jun-07 19:28N 57°36' E 011°42'0 0.0
2019-Jun-07 18:58N 57°36' E 011°42'0 0.0
2019-Jun-07 18:28N 57°36' E 011°42'0 0.0
2019-Jun-07 17:58N 57°36' E 011°42'0 0.1
2019-Jun-07 17:28N 57°36' E 011°42'0 0.0
2019-Jun-07 16:58N 57°36' E 011°42'0 0.0
2019-Jun-07 16:28N 57°36' E 011°42'0 0.1
2019-Jun-07 15:58N 57°36' E 011°42'0 0.0
2019-Jun-07 15:28N 57°36' E 011°42'0 0.1
2019-Jun-07 14:58N 57°36' E 011°42'0 0.1
2019-Jun-07 14:28N 57°36' E 011°42'1 1.6
2019-Jun-07 14:01N 57°36' E 011°40'510.8
2019-Jun-07 13:30N 57°30' E 011°37'816.3
2019-Jun-07 13:00N 57°22' E 011°37'714.1
2019-Jun-07 12:30N 57°15' E 011°37'3214.3
2019-Jun-07 10:16N 56°44' E 011°54'414.6
2019-Jun-07 10:00N 56°41' E 011°50'1316.6
2019-Jun-07 09:13N 56°30' E 011°38'416.5
2019-Jun-07 09:00N 56°27' E 011°35'7415.0
2019-Jun-07 04:04N 55°15' E 011°05'115.7
2019-Jun-07 03:59N 55°14' E 011°06'715.7
2019-Jun-07 03:30N 55°07' E 011°03'815.8
2019-Jun-07 03:00N 54°59' E 011°01'815.2
2019-Jun-07 02:30N 54°52' E 010°53'612.9
2019-Jun-07 02:00N 54°46' E 010°53'510.8
2019-Jun-07 01:31N 54°41' E 010°56'816.5
2019-Jun-07 01:01N 54°36' E 011°08'816.7
2019-Jun-07 00:30N 54°33' E 011°21'816.6
2019-Jun-07 00:00N 54°29' E 011°34'816.2
2019-Jun-06 23:30N 54°26' E 011°47'815.9
2019-Jun-06 23:00N 54°26' E 012°01'713.7
2019-Jun-06 22:30N 54°28' E 012°12'1528.4
2019-Jun-06 21:59N 54°41' E 012°26'4 5.8
2019-Jun-06 21:19N 54°43' E 012°31'7015.8
2019-Jun-06 16:55N 55°15' E 014°19'717.1
2019-Jun-06 16:31N 55°20' E 014°26'917.1
2019-Jun-06 15:59N 55°26' E 014°38'816.9
2019-Jun-06 15:30N 55°31' E 014°50'917.3
2019-Jun-06 15:00N 55°36' E 015°02'917.6
2019-Jun-06 14:30N 55°40' E 015°16'917.7
2019-Jun-06 14:01N 55°44' E 015°29'917.7
2019-Jun-06 13:31N 55°49' E 015°43'917.6
2019-Jun-06 13:01N 55°53' E 015°56'917.4
2019-Jun-06 12:31N 55°58' E 016°10'917.5
2019-Jun-06 12:01N 56°02' E 016°24'917.4
2019-Jun-06 11:31N 56°06' E 016°37'816.0
2019-Jun-06 11:00N 56°12' E 016°47'816.9
2019-Jun-06 10:30N 56°20' E 016°52'816.9
2019-Jun-06 10:00N 56°28' E 016°57'916.9
2019-Jun-06 09:30N 56°36' E 017°03'17716.8
2019-Jun-05 22:57N 59°12' E 019°41'816.8
2019-Jun-05 22:30N 59°18' E 019°49'1914.3
2019-Jun-05 21:10N 59°37' E 019°58'716.5
2019-Jun-05 20:44N 59°42' E 019°49'416.9
2019-Jun-05 20:29N 59°45' E 019°43'917.2
2019-Jun-05 19:57N 59°52' E 019°32'716.7
2019-Jun-05 19:30N 59°58' E 019°22'816.9
2019-Jun-05 19:01N 60°04' E 019°11'816.6
2019-Jun-05 18:31N 60°11' E 019°01'816.3
2019-Jun-05 17:59N 60°19' E 018°60'1315.2
2019-Jun-05 17:10N 60°32' E 019°03'6416.8
2019-Jun-05 13:20N 61°07' E 020°54'516.0
2019-Jun-05 13:01N 61°09' E 021°03'713.5
2019-Jun-05 12:30N 61°06' E 021°16'510.4
2019-Jun-05 12:00N 61°08' E 021°26'0 0.1
2019-Jun-05 11:25N 61°08' E 021°26'0 0.0
2019-Jun-05 11:01N 61°08' E 021°26'0 0.0
2019-Jun-05 10:28N 61°08' E 021°26'0 0.0
2019-Jun-05 09:57N 61°08' E 021°26'0 0.0
2019-Jun-05 09:31N 61°08' E 021°26'0 0.0
2019-Jun-05 09:00N 61°08' E 021°26'0 0.0
2019-Jun-05 08:30N 61°08' E 021°26'0 0.0
2019-Jun-05 08:00N 61°08' E 021°26'0 0.0
2019-Jun-05 07:30N 61°08' E 021°26'0 0.0
2019-Jun-05 07:00N 61°08' E 021°26'0 0.0
2019-Jun-05 06:30N 61°08' E 021°26'0 0.0
2019-Jun-05 05:57N 61°08' E 021°26'0 0.0
2019-Jun-05 05:27N 61°08' E 021°26'0 0.0
2019-Jun-05 04:57N 61°08' E 021°26'0 0.0
2019-Jun-05 04:30N 61°08' E 021°26'0 0.0
2019-Jun-05 04:00N 61°08' E 021°26'0 0.0
2019-Jun-05 03:30N 61°08' E 021°26'0 0.0
2019-Jun-05 02:57N 61°08' E 021°26'0 0.0
2019-Jun-05 02:30N 61°08' E 021°26'0 0.0
2019-Jun-05 01:51N 61°08' E 021°26'0 0.0
2019-Jun-05 01:21N 61°08' E 021°26'0 0.0
2019-Jun-05 00:51N 61°08' E 021°26'0 0.0
2019-Jun-05 00:21N 61°08' E 021°26'0 0.0
2019-Jun-04 23:51N 61°08' E 021°26'0 0.0
2019-Jun-04 23:21N 61°08' E 021°26'0 0.0
2019-Jun-04 22:51N 61°08' E 021°26'0 0.0
2019-Jun-04 22:18N 61°08' E 021°26'0 0.0
2019-Jun-04 21:42N 61°08' E 021°26'0 0.0
2019-Jun-04 21:30N 61°08' E 021°26'0 0.0
2019-Jun-04 20:48N 61°08' E 021°26'0 0.0
2019-Jun-04 20:09N 61°08' E 021°26'0 0.0
2019-Jun-04 19:51N 61°08' E 021°26'0 0.0
2019-Jun-04 19:27N 61°08' E 021°26'0 0.0
2019-Jun-04 18:57N 61°08' E 021°26'0 0.0
2019-Jun-04 18:27N 61°08' E 021°26'0 0.0
2019-Jun-04 18:00N 61°08' E 021°26'0 0.0
2019-Jun-04 17:30N 61°08' E 021°26'0 0.0
2019-Jun-04 17:00N 61°08' E 021°26'0 0.0
2019-Jun-04 16:30N 61°08' E 021°26'0 0.0
2019-Jun-04 15:57N 61°08' E 021°26'0 0.0
2019-Jun-04 15:30N 61°08' E 021°26'0 0.0
2019-Jun-04 15:00N 61°08' E 021°26'0 0.0
2019-Jun-04 14:30N 61°08' E 021°26'0 0.0
2019-Jun-04 14:00N 61°08' E 021°26'0 0.0
2019-Jun-04 13:30N 61°08' E 021°26'0 0.0
2019-Jun-04 13:00N 61°08' E 021°26'0 0.0
2019-Jun-04 12:30N 61°08' E 021°26'0 0.0
2019-Jun-04 12:00N 61°08' E 021°26'0 0.0
2019-Jun-04 11:30N 61°08' E 021°26'0 0.0
2019-Jun-04 11:00N 61°08' E 021°26'0 0.0
2019-Jun-04 10:30N 61°08' E 021°26'0 0.0
2019-Jun-04 10:00N 61°08' E 021°26'0 0.0
2019-Jun-04 09:30N 61°08' E 021°26'0 0.0
2019-Jun-04 09:00N 61°08' E 021°26'0 0.0
2019-Jun-04 08:30N 61°08' E 021°26'0 0.0
2019-Jun-04 07:57N 61°08' E 021°26'0 0.0
2019-Jun-04 07:30N 61°08' E 021°26'0 0.0
2019-Jun-04 07:00N 61°08' E 021°26'0 0.0
2019-Jun-04 06:30N 61°08' E 021°26'0 0.0
2019-Jun-04 06:00N 61°08' E 021°26'0 0.0
2019-Jun-04 05:30N 61°08' E 021°26'0 0.0
2019-Jun-04 05:00N 61°08' E 021°26'0 0.0
2019-Jun-04 04:30N 61°08' E 021°26'0 0.0
2019-Jun-04 04:00N 61°08' E 021°26'0 0.0
2019-Jun-04 03:30N 61°08' E 021°26'0 0.0
2019-Jun-04 03:00N 61°08' E 021°26'0 0.0
2019-Jun-04 02:30N 61°08' E 021°26'0 0.0
2019-Jun-04 02:00N 61°08' E 021°26'0 0.0
2019-Jun-04 01:30N 61°08' E 021°26'0 0.0
2019-Jun-04 00:57N 61°08' E 021°26'0 0.0
2019-Jun-04 00:27N 61°08' E 021°26'0 0.0
2019-Jun-03 23:57N 61°08' E 021°26'0 0.0
2019-Jun-03 23:30N 61°08' E 021°26'0 0.0
2019-Jun-03 23:00N 61°08' E 021°26'0 0.0
2019-Jun-03 22:30N 61°08' E 021°26'0 0.0
2019-Jun-03 22:00N 61°08' E 021°26'0 0.0
2019-Jun-03 21:30N 61°08' E 021°26'0 0.0
2019-Jun-03 20:59N 61°08' E 021°26'0 0.0
2019-Jun-03 20:29N 61°08' E 021°26'0 0.0
2019-Jun-03 19:59N 61°08' E 021°26'0 0.0
2019-Jun-03 19:29N 61°08' E 021°26'0 0.0
2019-Jun-03 18:59N 61°08' E 021°26'0 0.0
2019-Jun-03 18:29N 61°08' E 021°26'0 0.0
2019-Jun-03 18:00N 61°08' E 021°26'0 0.0
2019-Jun-03 17:29N 61°08' E 021°26'0 0.0
2019-Jun-03 16:59N 61°08' E 021°26'0 0.0
2019-Jun-03 16:26N 61°08' E 021°26'0 0.0
2019-Jun-03 15:59N 61°08' E 021°26'0 0.0
2019-Jun-03 15:29N 61°08' E 021°26'0 0.0
2019-Jun-03 14:59N 61°08' E 021°26'0 0.0
2019-Jun-03 14:24N 61°08' E 021°26'0 0.0
2019-Jun-03 13:53N 61°08' E 021°26'0 0.0
2019-Jun-03 13:26N 61°08' E 021°26'0 0.0
2019-Jun-03 12:51N 61°08' E 021°26'0 0.0
2019-Jun-03 12:26N 61°08' E 021°26'0 0.0
2019-Jun-03 11:59N 61°08' E 021°26'0 0.0
2019-Jun-03 11:26N 61°08' E 021°26'0 0.0
2019-Jun-03 10:56N 61°08' E 021°26'0 0.0
2019-Jun-03 10:29N 61°08' E 021°26'0 0.0
2019-Jun-03 09:59N 61°08' E 021°26'0 0.0
2019-Jun-03 09:26N 61°08' E 021°26'0 0.0
2019-Jun-03 08:59N 61°08' E 021°26'0 0.0
2019-Jun-03 08:29N 61°08' E 021°26'0 0.0
2019-Jun-03 07:59N 61°08' E 021°26'0 0.0
2019-Jun-03 07:29N 61°08' E 021°26'0 0.0
2019-Jun-03 06:59N 61°08' E 021°26'0 0.0
2019-Jun-03 06:29N 61°08' E 021°26'0 0.0
2019-Jun-03 05:59N 61°08' E 021°26'0 0.0
2019-Jun-03 05:29N 61°08' E 021°26'0 0.0
2019-Jun-03 04:59N 61°08' E 021°26'0 0.0
2019-Jun-03 04:29N 61°08' E 021°26'0 0.0
2019-Jun-03 03:59N 61°08' E 021°26'0 0.0
2019-Jun-03 03:29N 61°08' E 021°26'0 0.0
2019-Jun-03 02:59N 61°08' E 021°26'0 0.0
2019-Jun-03 02:29N 61°08' E 021°26'0 0.0
2019-Jun-03 01:59N 61°08' E 021°26'0 0.0
2019-Jun-03 01:29N 61°08' E 021°26'0 0.0
2019-Jun-03 00:59N 61°08' E 021°26'0 0.0
2019-Jun-03 00:29N 61°08' E 021°26'0 0.0
2019-Jun-02 23:59N 61°08' E 021°26'0 0.0
2019-Jun-02 23:29N 61°08' E 021°26'0 0.0
2019-Jun-02 22:59N 61°08' E 021°26'0 0.0
2019-Jun-02 22:29N 61°08' E 021°26'0 0.0
2019-Jun-02 21:59N 61°08' E 021°26'0 0.0
2019-Jun-02 21:29N 61°08' E 021°26'0 0.0
2019-Jun-02 20:56N 61°08' E 021°26'0 0.0
2019-Jun-02 20:29N 61°08' E 021°26'0 0.0
2019-Jun-02 19:59N 61°08' E 021°26'0 0.0
2019-Jun-02 19:29N 61°08' E 021°26'0 0.0
2019-Jun-02 18:59N 61°08' E 021°26'0 0.0
2019-Jun-02 18:29N 61°08' E 021°26'0 0.0
2019-Jun-02 17:56N 61°08' E 021°26'0 0.0
2019-Jun-02 17:29N 61°08' E 021°26'0 0.0
2019-Jun-02 16:59N 61°08' E 021°26'0 0.0
2019-Jun-02 16:29N 61°08' E 021°26'0 0.7
2019-Jun-02 16:01N 61°07' E 021°26'5 8.9
2019-Jun-02 15:30N 61°06' E 021°17'611.3
2019-Jun-02 15:00N 61°09' E 021°06'7215.0
2019-Jun-02 10:12N 60°29' E 019°02'314.8
2019-Jun-02 10:00N 60°26' E 019°02'714.6
2019-Jun-02 09:30N 60°19' E 019°01'714.4
2019-Jun-02 09:01N 60°12' E 019°05'714.9
2019-Jun-02 08:31N 60°06' E 019°14'815.1
2019-Jun-02 08:01N 60°01' E 019°24'714.9
2019-Jun-02 07:30N 59°55' E 019°34'814.8
2019-Jun-02 06:59N 59°49' E 019°43'28814.1
2019-Jun-01 10:30N 55°01' E 019°03'510.3
2019-Jun-01 10:00N 54°56' E 019°02'  
Track history (hours):
 
Tides and Currents Weather Stations Pressure Air Temp Water Temp Dewpoint Dewpoint Depression Visibility Wind Speed Wind Dir Waves Ship Positions

Suomigracht

Last reported at 2019-Jun-11 09:39 UTC. Time now 2019-Jun-17 14:37 UTC.
Position N 55°18' W 008°16'.

Length 173 m; beam 26 m.

Type: Cargo ship. MMSI: 246100000.

Date/timePositionNaut miles runAvg speedWind from/ knotsBaromVisibWave heightAir tempDewpointWater temp
2019-Jun-11 09:39N 55°18' W 008°16'316.4
2019-Jun-11 09:28N 55°19' W 008°11'1016.5
2019-Jun-11 08:52N 55°22' W 007°54'1217.7
2019-Jun-11 08:10N 55°26' W 007°34'918.4
2019-Jun-11 07:40N 55°28' W 007°18'717.7
2019-Jun-11 07:17N 55°29' W 007°06'517.2
2019-Jun-11 07:00N 55°28' W 006°57'816.8
2019-Jun-11 06:30N 55°27' W 006°43'816.8
2019-Jun-11 06:00N 55°26' W 006°28'816.3
2019-Jun-11 05:30N 55°26' W 006°14'815.7
2019-Jun-11 05:00N 55°22' W 006°01'1015.2
2019-Jun-11 04:22N 55°15' W 005°50'1014.9
2019-Jun-11 03:41N 55°15' W 005°32'1816.3
2019-Jun-11 02:34N 55°24' W 005°04'1216.6
2019-Jun-11 01:53N 55°35' W 004°59'616.8
2019-Jun-11 01:30N 55°41' W 004°59'816.8
2019-Jun-11 01:00N 55°50' W 004°57'815.6
2019-Jun-11 00:31N 55°57' W 004°53'4 8.0
2019-Jun-11 00:00N 55°58' W 004°46'0 0.6
2019-Jun-10 23:28N 55°57' W 004°46'0 0.0
2019-Jun-10 22:56N 55°57' W 004°46'0 0.0
2019-Jun-10 22:29N 55°57' W 004°46'0 0.0
2019-Jun-10 21:50N 55°57' W 004°46'0 0.0
2019-Jun-10 21:26N 55°57' W 004°46'0 0.0
2019-Jun-10 20:56N 55°57' W 004°46'0 0.0
2019-Jun-10 20:20N 55°57' W 004°46'0 0.0
2019-Jun-10 19:59N 55°57' W 004°46'0 0.0
2019-Jun-10 19:29N 55°57' W 004°46'0 0.0
2019-Jun-10 17:53N 55°57' W 004°46'0 0.0
2019-Jun-10 17:29N 55°57' W 004°46'0 0.0
2019-Jun-10 16:59N 55°57' W 004°46'0 0.0
2019-Jun-10 16:29N 55°57' W 004°46'0 0.0
2019-Jun-10 15:59N 55°57' W 004°46'0 0.0
2019-Jun-10 15:29N 55°57' W 004°46'0 0.0
2019-Jun-10 14:59N 55°57' W 004°46'0 0.0
2019-Jun-10 14:29N 55°57' W 004°46'0 0.0
2019-Jun-10 13:59N 55°57' W 004°46'0 0.0
2019-Jun-10 13:29N 55°57' W 004°46'0 0.0
2019-Jun-10 12:59N 55°57' W 004°46'0 0.0
2019-Jun-10 12:23N 55°57' W 004°46'0 0.0
2019-Jun-10 11:59N 55°57' W 004°46'0 0.0
2019-Jun-10 10:44N 55°57' W 004°46'0 0.0
2019-Jun-10 10:29N 55°57' W 004°46'0 0.0
2019-Jun-10 09:56N 55°57' W 004°46'0 0.0
2019-Jun-10 09:23N 55°57' W 004°46'0 0.0
2019-Jun-10 08:59N 55°57' W 004°46'0 0.0
2019-Jun-10 08:29N 55°57' W 004°46'0 0.0
2019-Jun-10 07:59N 55°57' W 004°46'0 0.0
2019-Jun-10 07:31N 55°57' W 004°46'1 2.8
2019-Jun-10 06:59N 55°58' W 004°48'511.3
2019-Jun-10 06:31N 55°54' W 004°55'817.0
2019-Jun-10 06:01N 55°46' W 004°58'40 5.6
2019-Jun-09 22:53N 55°14' W 005°40'411.3
2019-Jun-09 22:30N 55°14' W 005°48'611.0
2019-Jun-09 22:00N 55°14' W 005°57'510.6
2019-Jun-09 21:30N 55°19' W 006°03'5 9.7
2019-Jun-09 21:00N 55°21' W 006°10'5 9.8
2019-Jun-09 20:30N 55°24' W 006°18'510.0
2019-Jun-09 20:00N 55°27' W 006°24'5 9.7
2019-Jun-09 19:31N 55°31' W 006°29'5 9.3
2019-Jun-09 19:00N 55°35' W 006°35'611.3
2019-Jun-09 18:31N 55°39' W 006°41'714.3
2019-Jun-09 18:01N 55°44' W 006°49'19914.2
2019-Jun-09 04:00N 58°43' W 004°06'816.1
2019-Jun-09 03:30N 58°43' W 003°51'815.6
2019-Jun-09 03:01N 58°43' W 003°36'815.2
2019-Jun-09 02:31N 58°43' W 003°22'713.8
2019-Jun-09 02:00N 58°43' W 003°08'713.5
2019-Jun-09 01:31N 58°43' W 002°55'713.5
2019-Jun-09 00:58N 58°41' W 002°42'21216.2
2019-Jun-08 11:53N 58°07' E 003°58'616.3
2019-Jun-08 11:30N 58°05' E 004°09'916.4
2019-Jun-08 10:59N 58°03' E 004°25'816.9
2019-Jun-08 10:30N 58°01' E 004°40'816.5
2019-Jun-08 10:00N 57°60' E 004°55'816.5
2019-Jun-08 09:30N 57°58' E 005°10'816.4
2019-Jun-08 09:00N 57°56' E 005°26'816.6
2019-Jun-08 08:30N 57°55' E 005°41'816.4
2019-Jun-08 08:00N 57°53' E 005°56'816.2
2019-Jun-08 07:30N 57°51' E 006°11'917.0
2019-Jun-08 07:00N 57°50' E 006°26'917.3
2019-Jun-08 06:30N 57°48' E 006°42'917.8
2019-Jun-08 06:00N 57°47' E 006°59'918.0
2019-Jun-08 05:30N 57°47' E 007°16'917.6
2019-Jun-08 05:00N 57°47' E 007°32'918.3
2019-Jun-08 04:31N 57°46' E 007°49'918.3
2019-Jun-08 04:00N 57°46' E 008°07'917.5
2019-Jun-08 03:30N 57°47' E 008°23'917.2
2019-Jun-08 03:01N 57°47' E 008°39'917.4
2019-Jun-08 02:31N 57°47' E 008°55'816.9
2019-Jun-08 02:01N 57°48' E 009°11'917.0
2019-Jun-08 01:31N 57°48' E 009°27'917.0
2019-Jun-08 01:00N 57°48' E 009°43'816.9
2019-Jun-08 00:31N 57°48' E 009°59'816.8
2019-Jun-08 00:00N 57°48' E 010°15'816.6
2019-Jun-07 23:31N 57°48' E 010°30'816.2
2019-Jun-07 23:01N 57°48' E 010°45'816.1
2019-Jun-07 22:31N 57°45' E 010°59'816.7
2019-Jun-07 22:01N 57°42' E 011°13'917.3
2019-Jun-07 21:31N 57°38' E 011°28'815.1
2019-Jun-07 21:01N 57°36' E 011°41'0 0.3
2019-Jun-07 20:28N 57°36' E 011°41'0 0.0
2019-Jun-07 19:58N 57°36' E 011°41'0 0.0
2019-Jun-07 19:28N 57°36' E 011°42'0 0.0
2019-Jun-07 18:58N 57°36' E 011°42'0 0.0
2019-Jun-07 18:28N 57°36' E 011°42'0 0.0
2019-Jun-07 17:58N 57°36' E 011°42'0 0.1
2019-Jun-07 17:28N 57°36' E 011°42'0 0.0
2019-Jun-07 16:58N 57°36' E 011°42'0 0.0
2019-Jun-07 16:28N 57°36' E 011°42'0 0.1
2019-Jun-07 15:58N 57°36' E 011°42'0 0.0
2019-Jun-07 15:28N 57°36' E 011°42'0 0.1
2019-Jun-07 14:58N 57°36' E 011°42'0 0.1
2019-Jun-07 14:28N 57°36' E 011°42'1 1.6
2019-Jun-07 14:01N 57°36' E 011°40'510.8
2019-Jun-07 13:30N 57°30' E 011°37'816.3
2019-Jun-07 13:00N 57°22' E 011°37'714.1
2019-Jun-07 12:30N 57°15' E 011°37'3214.3
2019-Jun-07 10:16N 56°44' E 011°54'414.6
2019-Jun-07 10:00N 56°41' E 011°50'1316.6
2019-Jun-07 09:13N 56°30' E 011°38'416.5
2019-Jun-07 09:00N 56°27' E 011°35'7415.0
2019-Jun-07 04:04N 55°15' E 011°05'115.7
2019-Jun-07 03:59N 55°14' E 011°06'715.7
2019-Jun-07 03:30N 55°07' E 011°03'815.8
2019-Jun-07 03:00N 54°59' E 011°01'815.2
2019-Jun-07 02:30N 54°52' E 010°53'612.9
2019-Jun-07 02:00N 54°46' E 010°53'510.8
2019-Jun-07 01:31N 54°41' E 010°56'816.5
2019-Jun-07 01:01N 54°36' E 011°08'816.7
2019-Jun-07 00:30N 54°33' E 011°21'816.6
2019-Jun-07 00:00N 54°29' E 011°34'816.2
2019-Jun-06 23:30N 54°26' E 011°47'815.9
2019-Jun-06 23:00N 54°26' E 012°01'713.7
2019-Jun-06 22:30N 54°28' E 012°12'1528.4
2019-Jun-06 21:59N 54°41' E 012°26'4 5.8
2019-Jun-06 21:19N 54°43' E 012°31'7015.8
2019-Jun-06 16:55N 55°15' E 014°19'717.1
2019-Jun-06 16:31N 55°20' E 014°26'917.1
2019-Jun-06 15:59N 55°26' E 014°38'816.9
2019-Jun-06 15:30N 55°31' E 014°50'917.3
2019-Jun-06 15:00N 55°36' E 015°02'917.6
2019-Jun-06 14:30N 55°40' E 015°16'917.7
2019-Jun-06 14:01N 55°44' E 015°29'917.7
2019-Jun-06 13:31N 55°49' E 015°43'917.6
2019-Jun-06 13:01N 55°53' E 015°56'917.4
2019-Jun-06 12:31N 55°58' E 016°10'917.5
2019-Jun-06 12:01N 56°02' E 016°24'917.4
2019-Jun-06 11:31N 56°06' E 016°37'816.0
2019-Jun-06 11:00N 56°12' E 016°47'816.9
2019-Jun-06 10:30N 56°20' E 016°52'816.9
2019-Jun-06 10:00N 56°28' E 016°57'916.9
2019-Jun-06 09:30N 56°36' E 017°03'17716.8
2019-Jun-05 22:57N 59°12' E 019°41'816.8
2019-Jun-05 22:30N 59°18' E 019°49'1914.3
2019-Jun-05 21:10N 59°37' E 019°58'716.5
2019-Jun-05 20:44N 59°42' E 019°49'416.9
2019-Jun-05 20:29N 59°45' E 019°43'917.2
2019-Jun-05 19:57N 59°52' E 019°32'716.7
2019-Jun-05 19:30N 59°58' E 019°22'816.9
2019-Jun-05 19:01N 60°04' E 019°11'816.6
2019-Jun-05 18:31N 60°11' E 019°01'816.3
2019-Jun-05 17:59N 60°19' E 018°60'1315.2
2019-Jun-05 17:10N 60°32' E 019°03'6416.8
2019-Jun-05 13:20N 61°07' E 020°54'516.0
2019-Jun-05 13:01N 61°09' E 021°03'713.5
2019-Jun-05 12:30N 61°06' E 021°16'510.4
2019-Jun-05 12:00N 61°08' E 021°26'0 0.1
2019-Jun-05 11:25N 61°08' E 021°26'0 0.0
2019-Jun-05 11:01N 61°08' E 021°26'0 0.0
2019-Jun-05 10:28N 61°08' E 021°26'0 0.0
2019-Jun-05 09:57N 61°08' E 021°26'0 0.0
2019-Jun-05 09:31N 61°08' E 021°26'0 0.0
2019-Jun-05 09:00N 61°08' E 021°26'0 0.0
2019-Jun-05 08:30N 61°08' E 021°26'0 0.0
2019-Jun-05 08:00N 61°08' E 021°26'0 0.0
2019-Jun-05 07:30N 61°08' E 021°26'0 0.0
2019-Jun-05 07:00N 61°08' E 021°26'0 0.0
2019-Jun-05 06:30N 61°08' E 021°26'0 0.0
2019-Jun-05 05:57N 61°08' E 021°26'0 0.0
2019-Jun-05 05:27N 61°08' E 021°26'0 0.0
2019-Jun-05 04:57N 61°08' E 021°26'0 0.0
2019-Jun-05 04:30N 61°08' E 021°26'0 0.0
2019-Jun-05 04:00N 61°08' E 021°26'0 0.0
2019-Jun-05 03:30N 61°08' E 021°26'0 0.0
2019-Jun-05 02:57N 61°08' E 021°26'0 0.0
2019-Jun-05 02:30N 61°08' E 021°26'0 0.0
2019-Jun-05 01:51N 61°08' E 021°26'0 0.0
2019-Jun-05 01:21N 61°08' E 021°26'0 0.0
2019-Jun-05 00:51N 61°08' E 021°26'0 0.0
2019-Jun-05 00:21N 61°08' E 021°26'0 0.0
2019-Jun-04 23:51N 61°08' E 021°26'0 0.0
2019-Jun-04 23:21N 61°08' E 021°26'0 0.0
2019-Jun-04 22:51N 61°08' E 021°26'0 0.0
2019-Jun-04 22:18N 61°08' E 021°26'0 0.0
2019-Jun-04 21:42N 61°08' E 021°26'0 0.0
2019-Jun-04 21:30N 61°08' E 021°26'0 0.0
2019-Jun-04 20:48N 61°08' E 021°26'0 0.0
2019-Jun-04 20:09N 61°08' E 021°26'0 0.0
2019-Jun-04 19:51N 61°08' E 021°26'0 0.0
2019-Jun-04 19:27N 61°08' E 021°26'0 0.0
2019-Jun-04 18:57N 61°08' E 021°26'0 0.0
2019-Jun-04 18:27N 61°08' E 021°26'0 0.0
2019-Jun-04 18:00N 61°08' E 021°26'0 0.0
2019-Jun-04 17:30N 61°08' E 021°26'0 0.0
2019-Jun-04 17:00N 61°08' E 021°26'0 0.0
2019-Jun-04 16:30N 61°08' E 021°26'0 0.0
2019-Jun-04 15:57N 61°08' E 021°26'0 0.0
2019-Jun-04 15:30N 61°08' E 021°26'0 0.0
2019-Jun-04 15:00N 61°08' E 021°26'0 0.0
2019-Jun-04 14:30N 61°08' E 021°26'0 0.0
2019-Jun-04 14:00N 61°08' E 021°26'0 0.0
2019-Jun-04 13:30N 61°08' E 021°26'0 0.0
2019-Jun-04 13:00N 61°08' E 021°26'0 0.0
2019-Jun-04 12:30N 61°08' E 021°26'0 0.0
2019-Jun-04 12:00N 61°08' E 021°26'0 0.0
2019-Jun-04 11:30N 61°08' E 021°26'0 0.0
2019-Jun-04 11:00N 61°08' E 021°26'0 0.0
2019-Jun-04 10:30N 61°08' E 021°26'0 0.0
2019-Jun-04 10:00N 61°08' E 021°26'0 0.0
2019-Jun-04 09:30N 61°08' E 021°26'0 0.0
2019-Jun-04 09:00N 61°08' E 021°26'0 0.0
2019-Jun-04 08:30N 61°08' E 021°26'0 0.0
2019-Jun-04 07:57N 61°08' E 021°26'0 0.0
2019-Jun-04 07:30N 61°08' E 021°26'0 0.0
2019-Jun-04 07:00N 61°08' E 021°26'0 0.0
2019-Jun-04 06:30N 61°08' E 021°26'0 0.0
2019-Jun-04 06:00N 61°08' E 021°26'0 0.0
2019-Jun-04 05:30N 61°08' E 021°26'0 0.0
2019-Jun-04 05:00N 61°08' E 021°26'0 0.0
2019-Jun-04 04:30N 61°08' E 021°26'0 0.0
2019-Jun-04 04:00N 61°08' E 021°26'0 0.0
2019-Jun-04 03:30N 61°08' E 021°26'0 0.0
2019-Jun-04 03:00N 61°08' E 021°26'0 0.0
2019-Jun-04 02:30N 61°08' E 021°26'0 0.0
2019-Jun-04 02:00N 61°08' E 021°26'0 0.0
2019-Jun-04 01:30N 61°08' E 021°26'0 0.0
2019-Jun-04 00:57N 61°08' E 021°26'0 0.0
2019-Jun-04 00:27N 61°08' E 021°26'0 0.0
2019-Jun-03 23:57N 61°08' E 021°26'0 0.0
2019-Jun-03 23:30N 61°08' E 021°26'0 0.0
2019-Jun-03 23:00N 61°08' E 021°26'0 0.0
2019-Jun-03 22:30N 61°08' E 021°26'0 0.0
2019-Jun-03 22:00N 61°08' E 021°26'0 0.0
2019-Jun-03 21:30N 61°08' E 021°26'0 0.0
2019-Jun-03 20:59N 61°08' E 021°26'0 0.0
2019-Jun-03 20:29N 61°08' E 021°26'0 0.0
2019-Jun-03 19:59N 61°08' E 021°26'0 0.0
2019-Jun-03 19:29N 61°08' E 021°26'0 0.0
2019-Jun-03 18:59N 61°08' E 021°26'0 0.0
2019-Jun-03 18:29N 61°08' E 021°26'0 0.0
2019-Jun-03 18:00N 61°08' E 021°26'0 0.0
2019-Jun-03 17:29N 61°08' E 021°26'0 0.0
2019-Jun-03 16:59N 61°08' E 021°26'0 0.0
2019-Jun-03 16:26N 61°08' E 021°26'0 0.0
2019-Jun-03 15:59N 61°08' E 021°26'0 0.0
2019-Jun-03 15:29N 61°08' E 021°26'0 0.0
2019-Jun-03 14:59N 61°08' E 021°26'0 0.0
2019-Jun-03 14:24N 61°08' E 021°26'0 0.0
2019-Jun-03 13:53N 61°08' E 021°26'0 0.0
2019-Jun-03 13:26N 61°08' E 021°26'0 0.0
2019-Jun-03 12:51N 61°08' E 021°26'0 0.0
2019-Jun-03 12:26N 61°08' E 021°26'0 0.0
2019-Jun-03 11:59N 61°08' E 021°26'0 0.0
2019-Jun-03 11:26N 61°08' E 021°26'0 0.0
2019-Jun-03 10:56N 61°08' E 021°26'0 0.0
2019-Jun-03 10:29N 61°08' E 021°26'0 0.0
2019-Jun-03 09:59N 61°08' E 021°26'0 0.0
2019-Jun-03 09:26N 61°08' E 021°26'0 0.0
2019-Jun-03 08:59N 61°08' E 021°26'0 0.0
2019-Jun-03 08:29N 61°08' E 021°26'0 0.0
2019-Jun-03 07:59N 61°08' E 021°26'0 0.0
2019-Jun-03 07:29N 61°08' E 021°26'0 0.0
2019-Jun-03 06:59N 61°08' E 021°26'0 0.0
2019-Jun-03 06:29N 61°08' E 021°26'0 0.0
2019-Jun-03 05:59N 61°08' E 021°26'0 0.0
2019-Jun-03 05:29N 61°08' E 021°26'0 0.0
2019-Jun-03 04:59N 61°08' E 021°26'0 0.0
2019-Jun-03 04:29N 61°08' E 021°26'0 0.0
2019-Jun-03 03:59N 61°08' E 021°26'0 0.0
2019-Jun-03 03:29N 61°08' E 021°26'0 0.0
2019-Jun-03 02:59N 61°08' E 021°26'0 0.0
2019-Jun-03 02:29N 61°08' E 021°26'0 0.0
2019-Jun-03 01:59N 61°08' E 021°26'0 0.0
2019-Jun-03 01:29N 61°08' E 021°26'0 0.0
2019-Jun-03 00:59N 61°08' E 021°26'0 0.0
2019-Jun-03 00:29N 61°08' E 021°26'0 0.0
2019-Jun-02 23:59N 61°08' E 021°26'0 0.0
2019-Jun-02 23:29N 61°08' E 021°26'0 0.0
2019-Jun-02 22:59N 61°08' E 021°26'0 0.0
2019-Jun-02 22:29N 61°08' E 021°26'0 0.0
2019-Jun-02 21:59N 61°08' E 021°26'0 0.0
2019-Jun-02 21:29N 61°08' E 021°26'0 0.0
2019-Jun-02 20:56N 61°08' E 021°26'0 0.0
2019-Jun-02 20:29N 61°08' E 021°26'0 0.0
2019-Jun-02 19:59N 61°08' E 021°26'0 0.0
2019-Jun-02 19:29N 61°08' E 021°26'0 0.0
2019-Jun-02 18:59N 61°08' E 021°26'0 0.0
2019-Jun-02 18:29N 61°08' E 021°26'0 0.0
2019-Jun-02 17:56N 61°08' E 021°26'0 0.0
2019-Jun-02 17:29N 61°08' E 021°26'0 0.0
2019-Jun-02 16:59N 61°08' E 021°26'0 0.0
2019-Jun-02 16:29N 61°08' E 021°26'0 0.7
2019-Jun-02 16:01N 61°07' E 021°26'5 8.9
2019-Jun-02 15:30N 61°06' E 021°17'611.3
2019-Jun-02 15:00N 61°09' E 021°06'7215.0
2019-Jun-02 10:12N 60°29' E 019°02'314.8
2019-Jun-02 10:00N 60°26' E 019°02'714.6
2019-Jun-02 09:30N 60°19' E 019°01'714.4
2019-Jun-02 09:01N 60°12' E 019°05'714.9
2019-Jun-02 08:31N 60°06' E 019°14'815.1
2019-Jun-02 08:01N 60°01' E 019°24'714.9
2019-Jun-02 07:30N 59°55' E 019°34'814.8
2019-Jun-02 06:59N 59°49' E 019°43'28814.1
2019-Jun-01 10:30N 55°01' E 019°03'510.3
2019-Jun-01 10:00N 54°56' E 019°02'  

Dump ship's entire track history